createdAt,value
2022-10-11T00:02:27.114Z,97963.75
2022-10-11T00:05:01.148Z,97965.47
2022-10-11T00:07:31.135Z,97973.16
2022-10-11T00:10:05.386Z,97967.16
2022-10-11T00:12:34.266Z,97972.41
2022-10-11T00:15:03.103Z,97963.78
2022-10-11T00:17:36.210Z,97968.97
2022-10-11T00:20:11.041Z,97964.63
2022-10-11T00:22:41.960Z,97960.31
2022-10-11T00:25:29.714Z,97962.91
2022-10-11T00:28:16.447Z,97956.94
2022-10-11T00:31:09.015Z,97950.97
2022-10-11T00:33:58.203Z,97944.06
2022-10-11T00:36:45.683Z,97936.31
2022-10-11T00:39:32.597Z,97938.00
2022-10-11T00:42:19.943Z,97935.34
2022-10-11T00:45:44.579Z,97937.94
2022-10-11T00:48:35.454Z,97938.78
2022-10-11T00:51:27.073Z,97945.69
2022-10-11T00:54:17.821Z,97942.22
2022-10-11T00:57:07.679Z,97951.66
2022-10-11T00:59:55.718Z,97949.97
2022-10-11T01:02:43.662Z,97945.63
2022-10-11T01:05:31.054Z,97942.22
2022-10-11T01:08:19.894Z,97957.72
2022-10-11T01:11:07.411Z,97954.31
2022-10-11T01:14:07.654Z,97958.59
2022-10-11T01:16:59.482Z,97958.63
2022-10-11T01:19:55.282Z,97956.84
2022-10-11T01:23:05.046Z,97954.19
2022-10-11T01:26:11.304Z,97959.28
2022-10-11T01:29:07.593Z,97956.69
2022-10-11T01:32:02.049Z,97949.75
2022-10-11T01:34:57.034Z,97958.38
2022-10-11T01:37:48.289Z,97948.84
2022-10-11T01:40:38.258Z,97953.13
2022-10-11T01:43:25.738Z,97962.56
2022-10-11T01:46:13.304Z,97958.25
2022-10-11T01:49:03.265Z,97961.75
2022-10-11T01:51:52.402Z,97966.06
2022-10-11T01:55:09.262Z,97953.13
2022-10-11T01:58:08.732Z,97952.28
2022-10-11T02:01:00.507Z,97958.31
2022-10-11T02:03:50.569Z,97957.44
2022-10-11T02:06:45.964Z,97958.38
2022-10-11T02:09:36.662Z,97955.78
2022-10-11T02:12:27.629Z,97952.34
2022-10-11T02:15:15.618Z,97960.16
2022-10-11T02:18:07.390Z,97953.25
2022-10-11T02:20:54.482Z,97954.94
2022-10-11T02:23:49.074Z,97947.19
2022-10-11T02:26:36.380Z,97955.81
2022-10-11T02:29:24.683Z,97961.00
2022-10-11T02:32:11.832Z,97966.16
2022-10-11T02:35:00.490Z,97967.88
2022-10-11T02:37:51.434Z,97966.13
2022-10-11T02:40:42.493Z,97975.56
2022-10-11T02:43:33.736Z,97976.44
2022-10-11T02:46:21.109Z,97980.75
2022-10-11T02:49:08.792Z,97978.19
2022-10-11T02:51:56.625Z,97982.47
2022-10-11T02:54:43.826Z,97972.97
2022-10-11T02:57:31.811Z,97979.84
2022-10-11T03:00:18.968Z,97986.78
2022-10-11T03:03:06.185Z,97986.81
2022-10-11T03:05:59.556Z,97991.13
2022-10-11T03:08:46.926Z,97993.69
2022-10-11T03:11:34.121Z,97993.69
2022-10-11T03:14:22.178Z,97985.06
2022-10-11T03:17:31.417Z,97990.28
2022-10-11T03:20:16.264Z,97994.63
2022-10-11T03:23:03.875Z,97995.50
2022-10-11T03:25:52.146Z,97994.63
2022-10-11T03:28:41.413Z,97999.81
2022-10-11T03:31:29.978Z,97998.94
2022-10-11T03:34:17.019Z,98002.34
2022-10-11T03:37:03.725Z,98009.25
2022-10-11T03:39:50.690Z,98006.66
2022-10-11T03:42:38.193Z,98009.25
2022-10-11T03:45:24.989Z,98003.22
2022-10-11T03:48:13.937Z,98007.63
2022-10-11T03:51:01.500Z,98003.28
2022-10-11T03:53:51.593Z,98007.66
2022-10-11T03:56:41.973Z,97997.34
2022-10-11T03:59:29.409Z,98015.44
2022-10-11T04:02:16.331Z,98012.03
2022-10-11T04:05:06.593Z,98007.72
2022-10-11T04:07:53.850Z,98010.28
2022-10-11T04:10:41.261Z,98012.88
2022-10-11T04:13:27.945Z,98012.88
2022-10-11T04:16:15.153Z,98018.94
2022-10-11T04:19:02.568Z,98014.63
2022-10-11T04:21:50.928Z,98023.25
2022-10-11T04:24:38.035Z,98020.66
2022-10-11T04:27:25.114Z,98025.00
2022-10-11T04:30:13.618Z,98024.13
2022-10-11T04:33:11.626Z,98031.03
2022-10-11T04:36:01.045Z,98031.91
2022-10-11T04:38:49.649Z,98042.25
2022-10-11T04:41:36.746Z,98039.66
2022-10-11T04:44:23.817Z,98030.97
2022-10-11T04:47:10.610Z,98037.00
2022-10-11T04:49:57.831Z,98038.72
2022-10-11T04:52:44.817Z,98048.16
2022-10-11T04:55:32.942Z,98048.28
2022-10-11T04:58:20.012Z,98043.97
2022-10-11T05:01:07.019Z,98050.88
2022-10-11T05:03:54.246Z,98064.72
2022-10-11T05:06:41.074Z,98050.03
2022-10-11T05:09:27.875Z,98050.88
2022-10-11T05:12:16.074Z,98046.59
2022-10-11T05:15:03.419Z,98054.34
2022-10-11T05:17:50.146Z,98060.41
2022-10-11T05:20:37.056Z,98053.50
2022-10-11T05:23:24.256Z,98060.38
2022-10-11T05:26:11.343Z,98056.94
2022-10-11T05:29:00.141Z,98061.22
2022-10-11T05:31:47.437Z,98070.78
2022-10-11T05:34:34.721Z,98076.84
2022-10-11T05:37:21.617Z,98067.34
2022-10-11T05:40:11.072Z,98063.03
2022-10-11T05:42:58.346Z,98075.16
2022-10-11T05:45:47.625Z,98070.00
2022-10-11T05:48:35.489Z,98068.28
2022-10-11T05:51:23.061Z,98073.50
2022-10-11T05:54:09.882Z,98070.94
2022-10-11T05:56:57.032Z,98069.22
2022-10-11T05:59:44.283Z,98066.63
2022-10-11T06:02:32.433Z,98071.84
2022-10-11T06:05:19.831Z,98062.31
2022-10-11T06:08:08.985Z,98086.47
2022-10-11T06:10:56.283Z,98079.59
2022-10-11T06:13:43.743Z,98080.47
2022-10-11T06:16:30.953Z,98084.81
2022-10-11T06:19:21.073Z,98083.06
2022-10-11T06:22:12.263Z,98084.81
2022-10-11T06:24:59.294Z,98088.25
2022-10-11T06:27:46.405Z,98089.97
2022-10-11T06:30:33.621Z,98102.94
2022-10-11T06:33:20.577Z,98105.53
2022-10-11T06:36:12.243Z,98100.28
2022-10-11T06:39:01.473Z,98095.94
2022-10-11T06:41:48.170Z,98102.06
2022-10-11T06:44:35.126Z,98110.72
2022-10-11T06:47:22.350Z,98108.97
2022-10-11T06:50:09.752Z,98109.84
2022-10-11T06:52:58.014Z,98108.97
2022-10-11T06:55:45.287Z,98110.72
2022-10-11T06:58:32.958Z,98119.31
2022-10-11T07:01:21.674Z,98108.91
2022-10-11T07:04:08.979Z,98114.94
2022-10-11T07:06:55.792Z,98123.56
2022-10-11T07:09:44.184Z,98124.31
2022-10-11T07:12:31.292Z,98116.50
2022-10-11T07:15:18.465Z,98113.78
2022-10-11T07:18:05.842Z,98106.53
2022-10-11T07:20:52.729Z,98100.50
2022-10-11T07:23:39.521Z,98097.56
2022-10-11T07:26:32.494Z,98097.38
2022-10-11T07:29:24.038Z,98092.84
2022-10-11T07:32:10.778Z,98089.94
2022-10-11T07:34:57.726Z,98083.56
2022-10-11T07:37:45.149Z,98080.69
2022-10-11T07:40:32.035Z,98068.91
2022-10-11T07:43:20.579Z,98082.44
2022-10-11T07:46:08.275Z,98075.94
2022-10-11T07:48:56.419Z,98074.06
2022-10-11T07:51:43.265Z,98072.75
2022-10-11T07:54:30.139Z,98072.56
2022-10-11T07:57:17.525Z,98076.41
2022-10-11T08:00:07.209Z,98079.09
2022-10-11T08:02:58.940Z,98076.28
2022-10-11T08:05:45.810Z,98078.91
2022-10-11T08:08:33.611Z,98082.97
2022-10-11T08:11:22.257Z,98083.19
2022-10-11T08:14:11.354Z,98072.94
2022-10-11T08:16:59.769Z,98079.41
2022-10-11T08:19:46.375Z,98085.88
2022-10-11T08:22:33.470Z,98086.03
2022-10-11T08:25:20.537Z,98097.81
2022-10-11T08:28:07.921Z,98094.31
2022-10-11T08:30:55.993Z,98087.81
2022-10-11T08:33:44.210Z,98098.72
2022-10-11T08:36:31.174Z,98094.19
2022-10-11T08:39:18.127Z,98101.19
2022-10-11T08:42:08.556Z,98099.78
2022-10-11T08:45:10.512Z,98100.41
2022-10-11T08:48:04.193Z,98099.13
2022-10-11T08:50:55.802Z,98102.25
2022-10-11T08:53:50.162Z,98106.25
2022-10-11T08:56:40.001Z,98102.19
2022-10-11T08:59:32.697Z,98104.78
2022-10-11T09:02:55.654Z,98098.19
2022-10-11T09:05:49.774Z,98104.72
2022-10-11T09:08:50.798Z,98107.25
2022-10-11T09:11:49.019Z,98108.50
2022-10-11T09:14:50.055Z,98104.88
2022-10-11T09:17:57.178Z,98106.00
2022-10-11T09:20:57.503Z,98103.00
2022-10-11T09:24:03.969Z,98101.53
2022-10-11T09:26:37.417Z,98103.66
2022-10-11T09:29:09.717Z,98110.75
2022-10-11T09:31:38.087Z,98102.69
2022-10-11T09:34:12.196Z,98098.94
2022-10-11T09:36:43.090Z,98106.59
2022-10-11T09:39:21.824Z,98105.34
2022-10-11T09:41:55.355Z,98100.00
2022-10-11T09:44:25.677Z,98097.06
2022-10-11T09:46:55.923Z,98096.88
2022-10-11T09:49:28.978Z,98101.06
2022-10-11T09:51:59.108Z,98102.25
2022-10-11T09:54:40.525Z,98088.09
2022-10-11T09:57:20.377Z,98091.06
2022-10-11T10:00:03.721Z,98086.56
2022-10-11T10:02:47.013Z,98092.00
2022-10-11T10:05:18.947Z,98083.56
2022-10-11T10:08:07.221Z,98078.72
2022-10-11T10:10:39.921Z,98079.25
2022-10-11T10:13:21.920Z,98085.88
2022-10-11T10:15:53.589Z,98080.81
2022-10-11T10:18:25.748Z,98082.75
2022-10-11T10:20:55.658Z,98085.22
2022-10-11T10:23:26.203Z,98087.47
2022-10-11T10:26:11.209Z,98084.47
2022-10-11T10:28:40.138Z,98082.69
2022-10-11T10:31:22.483Z,98083.56
2022-10-11T10:33:52.941Z,98079.66
2022-10-11T10:36:24.816Z,98079.66
2022-10-11T10:38:58.539Z,98080.38
2022-10-11T10:41:28.414Z,98078.75
2022-10-11T10:43:58.586Z,98075.94
2022-10-11T10:46:35.154Z,98069.91
2022-10-11T10:49:34.922Z,98069.53
2022-10-11T10:52:21.613Z,98072.50
2022-10-11T10:54:56.159Z,98079.53
2022-10-11T10:57:29.825Z,98069.78
2022-10-11T11:00:06.915Z,98078.97
2022-10-11T11:02:43.836Z,98070.91
2022-10-11T11:05:22.925Z,98074.25
2022-10-11T11:07:53.533Z,98067.28
2022-10-11T11:10:25.062Z,98062.84
2022-10-11T11:13:02.721Z,98067.00
2022-10-11T11:15:38.325Z,98068.38
2022-10-11T11:18:20.356Z,98060.09
2022-10-11T11:20:56.660Z,98064.16
2022-10-11T11:23:31.829Z,98068.84
2022-10-11T11:26:08.089Z,98057.88
2022-10-11T11:28:48.867Z,98050.16
2022-10-11T11:31:34.967Z,98056.44
2022-10-11T11:34:06.930Z,98035.66
2022-10-11T11:36:40.429Z,98046.38
2022-10-11T11:39:13.693Z,98040.69
2022-10-11T11:41:45.005Z,98035.75
2022-10-11T11:44:20.896Z,98032.22
2022-10-11T11:46:56.676Z,98032.13
2022-10-11T11:49:29.583Z,98027.91
2022-10-11T11:51:58.548Z,98019.59
2022-10-11T11:54:37.358Z,98032.44
2022-10-11T11:57:13.217Z,98028.41
2022-10-11T11:59:47.257Z,98023.69
2022-10-11T12:02:44.211Z,98022.50
2022-10-11T12:05:14.891Z,98014.91
2022-10-11T12:07:51.252Z,98020.53
2022-10-11T12:10:32.632Z,98018.69
2022-10-11T12:13:09.165Z,98023.81
2022-10-11T12:15:39.316Z,98009.81
2022-10-11T12:18:16.373Z,98012.03
2022-10-11T12:20:45.480Z,98013.63
2022-10-11T12:23:40.051Z,98013.00
2022-10-11T12:26:32.210Z,98010.69
2022-10-11T12:29:28.877Z,98002.06
2022-10-11T12:34:52.863Z,98006.75
2022-10-11T12:37:50.749Z,98006.84
2022-10-11T12:40:37.263Z,98008.75
2022-10-11T12:43:42.060Z,97999.47
2022-10-11T12:46:40.459Z,97994.63
2022-10-11T12:49:43.204Z,97995.06
2022-10-11T12:52:27.053Z,97996.28
2022-10-11T12:55:19.232Z,98000.13
2022-10-11T12:58:24.957Z,97987.16
2022-10-11T13:01:13.377Z,97993.88
2022-10-11T13:03:43.106Z,97990.69
2022-10-11T13:06:13.699Z,97991.09
2022-10-11T13:08:45.885Z,97992.28
2022-10-11T13:11:19.449Z,97985.34
2022-10-11T13:13:52.035Z,97993.59
2022-10-11T13:16:22.429Z,97990.88
2022-10-11T13:18:56.623Z,97995.22
2022-10-11T13:21:32.116Z,97995.63
2022-10-11T13:24:03.867Z,97989.75
2022-10-11T13:26:32.729Z,97991.06
2022-10-11T13:29:01.588Z,97994.88
2022-10-11T13:31:29.965Z,97991.28
2022-10-11T13:34:00.251Z,98000.00
2022-10-11T13:36:29.058Z,97985.38
2022-10-11T13:38:59.035Z,97988.75
2022-10-11T13:41:30.912Z,97985.81
2022-10-11T13:44:00.546Z,97995.06
2022-10-11T13:46:30.635Z,97990.72
2022-10-11T13:49:03.206Z,97994.50
2022-10-11T13:51:36.373Z,97994.19
2022-10-11T13:54:09.461Z,98001.47
2022-10-11T13:56:47.734Z,97997.69
2022-10-11T13:59:19.394Z,98007.16
2022-10-11T14:01:48.342Z,98003.88
2022-10-11T14:04:18.381Z,97992.75
2022-10-11T14:06:49.673Z,97993.63
2022-10-11T14:09:21.520Z,97992.00
2022-10-11T14:11:51.529Z,97987.22
2022-10-11T14:14:31.044Z,97987.50
2022-10-11T14:17:01.241Z,97991.66
2022-10-11T14:19:29.678Z,97992.91
2022-10-11T14:21:58.009Z,97990.84
2022-10-11T14:24:26.437Z,97995.63
2022-10-11T14:26:56.420Z,97987.22
2022-10-11T14:29:26.574Z,97991.84
2022-10-11T14:31:56.634Z,97993.63
2022-10-11T14:34:25.973Z,97995.09
2022-10-11T14:36:54.329Z,97993.34
2022-10-11T14:39:23.796Z,97990.53
2022-10-11T14:41:53.192Z,97999.94
2022-10-11T14:44:23.364Z,97993.31
2022-10-11T14:46:54.818Z,98001.41
2022-10-11T14:49:25.240Z,97998.41
2022-10-11T14:51:54.894Z,98005.38
2022-10-11T14:54:24.470Z,98001.63
2022-10-11T14:56:54.254Z,98002.97
2022-10-11T14:59:25.867Z,97999.84
2022-10-11T15:01:54.724Z,98008.63
2022-10-11T15:04:23.497Z,98006.88
2022-10-11T15:06:52.965Z,98001.69
2022-10-11T15:09:21.921Z,98009.31
2022-10-11T15:11:51.275Z,98016.28
2022-10-11T15:14:19.539Z,98016.16
2022-10-11T15:16:49.442Z,98015.81
2022-10-11T15:19:18.938Z,98012.00
2022-10-11T15:21:47.526Z,98013.88
2022-10-11T15:24:16.156Z,98017.63
2022-10-11T15:26:45.734Z,98023.34
2022-10-11T15:29:14.253Z,98021.31
2022-10-11T15:31:42.571Z,98022.31
2022-10-11T15:34:12.476Z,98025.53
2022-10-11T15:36:41.094Z,98023.41
2022-10-11T15:39:24.218Z,98031.00
2022-10-11T15:41:52.530Z,98029.22
2022-10-11T15:44:21.471Z,98027.13
2022-10-11T15:46:49.812Z,98035.28
2022-10-11T15:49:19.755Z,98032.47
2022-10-11T15:51:48.116Z,98027.91
2022-10-11T15:54:16.476Z,98044.72
2022-10-11T15:56:44.774Z,98052.03
2022-10-11T15:59:13.045Z,98048.06
2022-10-11T16:01:41.442Z,98052.69
2022-10-11T16:04:10.593Z,98053.88
2022-10-11T16:06:41.139Z,98055.66
2022-10-11T16:09:09.544Z,98056.19
2022-10-11T16:11:37.928Z,98064.00
2022-10-11T16:14:06.240Z,98069.28
2022-10-11T16:16:34.567Z,98066.59
2022-10-11T16:19:02.905Z,98072.03
2022-10-11T16:21:31.261Z,98074.81
2022-10-11T16:24:02.383Z,98072.31
2022-10-11T16:26:30.682Z,98080.19
2022-10-11T16:29:00.337Z,98083.81
2022-10-11T16:31:28.796Z,98086.59
2022-10-11T16:33:57.689Z,98089.41
2022-10-11T16:36:36.858Z,98092.13
2022-10-11T16:39:13.412Z,98091.38
2022-10-11T16:41:42.772Z,98100.13
2022-10-11T16:44:17.566Z,98101.91
2022-10-11T16:46:48.472Z,98101.03
2022-10-11T16:49:20.333Z,98112.44
2022-10-11T16:51:48.857Z,98111.56
2022-10-11T16:54:20.768Z,98112.44
2022-10-11T16:56:49.682Z,98112.38
2022-10-11T16:59:18.536Z,98120.28
2022-10-11T17:01:47.214Z,98120.38
2022-10-11T17:04:15.856Z,98130.78
2022-10-11T17:06:45.022Z,98135.88
2022-10-11T17:09:13.447Z,98135.84
2022-10-11T17:11:43.666Z,98138.69
2022-10-11T17:14:12.834Z,98145.59
2022-10-11T17:16:41.318Z,98147.63
2022-10-11T17:19:11.398Z,98147.84
2022-10-11T17:21:40.327Z,98160.22
2022-10-11T17:24:10.359Z,98160.19
2022-10-11T17:26:38.835Z,98165.69
2022-10-11T17:29:09.090Z,98162.91
2022-10-11T17:31:38.537Z,98167.44
2022-10-11T17:34:07.164Z,98169.13
2022-10-11T17:36:35.872Z,98173.50
2022-10-11T17:39:06.632Z,98176.00
2022-10-11T17:41:35.635Z,98177.13
2022-10-11T17:44:04.637Z,98174.94
2022-10-11T17:46:36.273Z,98173.13
2022-10-11T17:49:06.993Z,98182.19
2022-10-11T17:51:37.249Z,98188.63
2022-10-11T17:54:06.724Z,98194.44
2022-10-11T17:56:38.184Z,98197.59
2022-10-11T17:59:09.914Z,98218.94
2022-10-11T18:01:41.353Z,98227.69
2022-10-11T18:04:17.446Z,98226.78
2022-10-11T18:06:47.726Z,98231.38
2022-10-11T18:09:18.997Z,98238.53
2022-10-11T18:11:49.054Z,98245.78
2022-10-11T18:14:21.924Z,98252.75
2022-10-11T18:17:02.492Z,98256.28
2022-10-11T18:19:31.767Z,98265.94
2022-10-11T18:22:05.860Z,98266.75
2022-10-11T18:24:38.156Z,98268.56
2022-10-11T18:27:07.217Z,98269.50
2022-10-11T18:29:37.182Z,98268.63
2022-10-11T18:32:13.227Z,98265.00
2022-10-11T18:34:42.888Z,98265.09
2022-10-11T18:37:13.432Z,98271.22
2022-10-11T18:39:42.632Z,98273.97
2022-10-11T18:42:11.969Z,98278.41
2022-10-11T18:44:43.848Z,98281.88
2022-10-11T18:47:15.071Z,98274.94
2022-10-11T18:49:44.500Z,98283.59
2022-10-11T18:52:13.655Z,98276.69
2022-10-11T18:54:44.130Z,98284.41
2022-10-11T18:57:13.555Z,98279.28
2022-10-11T18:59:43.038Z,98278.41
2022-10-11T19:02:15.711Z,98280.88
2022-10-11T19:04:47.904Z,98280.03
2022-10-11T19:07:19.564Z,98281.84
2022-10-11T19:09:50.087Z,98283.66
2022-10-11T19:12:22.533Z,98285.47
2022-10-11T19:14:52.806Z,98285.44
2022-10-11T19:17:24.389Z,98291.50
2022-10-11T19:19:53.621Z,98294.06
2022-10-11T19:22:23.163Z,98290.63
2022-10-11T19:24:52.827Z,98297.56
2022-10-11T19:27:22.835Z,98299.28
2022-10-11T19:29:52.320Z,98300.13
2022-10-11T19:32:22.472Z,98298.41
2022-10-11T19:34:52.602Z,98294.94
2022-10-11T19:37:22.192Z,98308.84
2022-10-11T19:39:51.103Z,98305.38
2022-10-11T19:42:20.764Z,98306.25
2022-10-11T19:44:50.502Z,98311.38
2022-10-11T19:47:23.535Z,98307.03
2022-10-11T19:49:56.990Z,98313.09
2022-10-11T19:52:27.429Z,98313.16
2022-10-11T19:54:58.873Z,98316.69
2022-10-11T19:57:30.075Z,98317.53
2022-10-11T20:00:00.751Z,98307.78
2022-10-11T20:02:30.081Z,98312.13
2022-10-11T20:05:00.937Z,98311.38
2022-10-11T20:07:31.021Z,98309.69
2022-10-11T20:10:01.849Z,98305.41
2022-10-11T20:12:32.221Z,98302.81
2022-10-11T20:15:01.032Z,98301.97
2022-10-11T20:17:44.510Z,98302.78
2022-10-11T20:20:14.796Z,98297.59
2022-10-11T20:22:43.834Z,98307.13
2022-10-11T20:25:12.618Z,98307.13
2022-10-11T20:27:43.538Z,98315.81
2022-10-11T20:30:14.774Z,98320.03
2022-10-11T20:32:44.662Z,98324.31
2022-10-11T20:35:15.920Z,98324.38
2022-10-11T20:37:44.512Z,98321.84
2022-10-11T20:40:14.479Z,98323.44
2022-10-11T20:42:43.009Z,98327.78
2022-10-11T20:45:13.636Z,98323.53
2022-10-11T20:47:42.579Z,98320.09
2022-10-11T20:50:11.110Z,98321.00
2022-10-11T20:52:55.209Z,98312.34
2022-10-11T20:55:23.646Z,98323.63
2022-10-11T20:57:53.962Z,98323.63
2022-10-11T21:00:23.302Z,98330.59
2022-10-11T21:02:51.984Z,98331.47
2022-10-11T21:05:20.480Z,98323.66
2022-10-11T21:07:50.470Z,98328.84
2022-10-11T21:10:23.420Z,98327.97
2022-10-11T21:12:52.924Z,98337.53
2022-10-11T21:15:24.748Z,98331.44
2022-10-11T21:17:54.433Z,98328.81
2022-10-11T21:20:23.024Z,98328.81
2022-10-11T21:22:52.750Z,98325.38
2022-10-11T21:25:21.440Z,98323.75
2022-10-11T21:27:49.894Z,98319.34
2022-10-11T21:30:18.651Z,98317.63
2022-10-11T21:32:47.068Z,98324.56
2022-10-11T21:35:15.510Z,98323.75
2022-10-11T21:37:44.259Z,98322.84
2022-10-11T21:40:13.977Z,98317.66
2022-10-11T21:42:42.342Z,98317.66
2022-10-11T21:45:10.791Z,98319.38
2022-10-11T21:47:39.530Z,98312.50
2022-10-11T21:50:09.005Z,98316.06
2022-10-11T21:52:37.896Z,98317.00
2022-10-11T21:55:06.873Z,98323.97
2022-10-11T21:57:39.237Z,98324.88
2022-10-11T22:00:08.978Z,98322.25
2022-10-11T22:02:41.865Z,98312.72
2022-10-11T22:05:10.350Z,98330.06
2022-10-11T22:07:39.038Z,98330.88
2022-10-11T22:10:07.876Z,98328.31
2022-10-11T22:12:38.222Z,98323.91
2022-10-11T22:15:08.025Z,98328.25
2022-10-11T22:17:41.813Z,98333.47
2022-10-11T22:20:10.913Z,98331.75
2022-10-11T22:22:39.523Z,98327.44
2022-10-11T22:25:09.122Z,98328.31
2022-10-11T22:27:38.927Z,98325.69
2022-10-11T22:30:08.405Z,98330.00
2022-10-11T22:32:37.083Z,98332.63
2022-10-11T22:35:06.175Z,98331.75
2022-10-11T22:37:35.427Z,98333.41
2022-10-11T22:40:04.431Z,98332.50
2022-10-11T22:42:32.789Z,98323.78
2022-10-11T22:45:02.608Z,98328.06
2022-10-11T22:47:31.184Z,98325.50
2022-10-11T22:49:59.550Z,98332.50
2022-10-11T22:52:27.996Z,98322.13
2022-10-11T22:54:59.253Z,98321.28
2022-10-11T22:57:27.698Z,98314.34
2022-10-11T22:59:56.060Z,98319.53
2022-10-11T23:02:25.970Z,98309.91
2022-10-11T23:04:54.635Z,98322.13
2022-10-11T23:07:24.649Z,98316.06
2022-10-11T23:09:53.154Z,98313.44
2022-10-11T23:12:21.542Z,98318.66
2022-10-11T23:14:49.922Z,98313.50
2022-10-11T23:17:18.352Z,98317.00
2022-10-11T23:19:48.351Z,98317.00
2022-10-11T23:22:16.868Z,98318.78
2022-10-11T23:24:45.119Z,98316.16
2022-10-11T23:27:13.339Z,98317.06
2022-10-11T23:29:41.682Z,98324.88
2022-10-11T23:32:12.415Z,98322.28
2022-10-11T23:34:40.778Z,98326.63
2022-10-11T23:37:10.764Z,98330.09
2022-10-11T23:39:39.209Z,98337.88
2022-10-11T23:42:08.716Z,98339.41
2022-10-11T23:44:37.066Z,98342.09
2022-10-11T23:47:05.420Z,98334.31
2022-10-11T23:49:33.955Z,98331.53
2022-10-11T23:52:02.417Z,98336.69
2022-10-11T23:54:32.299Z,98330.69
2022-10-11T23:57:00.778Z,98335.97
2022-10-11T23:59:29.730Z,98336.97
